createdAt,value
2019-03-30T00:00:31.127Z,6.20
2019-03-30T00:01:10.885Z,6.10
2019-03-30T00:01:49.201Z,6.10
2019-03-30T00:02:27.847Z,6.10
2019-03-30T00:03:06.458Z,6.10
2019-03-30T00:03:45.075Z,6.10
2019-03-30T00:04:23.523Z,6.10
2019-03-30T00:05:01.884Z,6.10
2019-03-30T00:05:39.868Z,6.10
2019-03-30T00:06:18.495Z,6.10
2019-03-30T00:06:56.607Z,6.10
2019-03-30T00:07:34.874Z,6.10
2019-03-30T00:08:13.407Z,6.10
2019-03-30T00:08:52.053Z,6.00
2019-03-30T00:09:30.642Z,6.00
2019-03-30T00:10:08.853Z,6.00
2019-03-30T00:10:47.195Z,6.10
2019-03-30T00:11:25.861Z,6.00
2019-03-30T00:12:04.141Z,6.10
2019-03-30T00:12:41.878Z,6.00
2019-03-30T00:13:20.391Z,6.00
2019-03-30T00:13:59.023Z,6.00
2019-03-30T00:14:37.609Z,6.00
2019-03-30T00:15:15.800Z,6.00
2019-03-30T00:15:54.421Z,6.00
2019-03-30T00:16:33.005Z,6.00
2019-03-30T00:17:11.601Z,6.00
2019-03-30T00:17:50.123Z,6.00
2019-03-30T00:18:28.673Z,6.00
2019-03-30T00:19:07.143Z,6.00
2019-03-30T00:19:45.392Z,5.90
2019-03-30T00:20:23.993Z,5.90
2019-03-30T00:21:02.290Z,6.00
2019-03-30T00:21:40.227Z,5.90
2019-03-30T00:22:18.732Z,5.90
2019-03-30T00:22:56.905Z,5.90
2019-03-30T00:23:35.178Z,6.00
2019-03-30T00:24:13.785Z,5.90
2019-03-30T00:24:51.793Z,5.90
2019-03-30T00:25:30.123Z,6.00
2019-03-30T00:26:08.803Z,6.00
2019-03-30T00:26:46.669Z,5.90
2019-03-30T00:27:24.582Z,5.90
2019-03-30T00:28:02.553Z,5.90
2019-03-30T00:28:41.309Z,5.90
2019-03-30T00:29:19.677Z,5.90
2019-03-30T00:29:58.286Z,5.90
2019-03-30T00:30:36.323Z,5.90
2019-03-30T00:31:14.805Z,5.90
2019-03-30T00:31:53.046Z,5.90
2019-03-30T00:32:31.244Z,5.90
2019-03-30T00:33:09.237Z,5.90
2019-03-30T00:33:47.187Z,5.80
2019-03-30T00:34:24.667Z,5.80
2019-03-30T00:35:02.850Z,5.80
2019-03-30T00:35:41.428Z,5.80
2019-03-30T00:36:20.003Z,5.80
2019-03-30T00:36:58.273Z,5.80
2019-03-30T00:37:36.853Z,5.80
2019-03-30T00:38:15.128Z,5.80
2019-03-30T00:38:53.758Z,5.80
2019-03-30T00:39:32.127Z,5.80
2019-03-30T00:40:10.699Z,5.80
2019-03-30T00:40:49.048Z,5.80
2019-03-30T00:41:27.457Z,5.80
2019-03-30T00:42:06.064Z,5.80
2019-03-30T00:42:43.643Z,5.80
2019-03-30T00:43:21.994Z,5.80
2019-03-30T00:44:00.242Z,5.80
2019-03-30T00:44:38.520Z,5.80
2019-03-30T00:45:16.809Z,5.80
2019-03-30T00:46:13.334Z,5.80
2019-03-30T00:46:51.719Z,5.80
2019-03-30T00:47:30.072Z,5.80
2019-03-30T00:48:08.281Z,5.80
2019-03-30T00:48:46.505Z,5.80
2019-03-30T00:49:24.085Z,5.80
2019-03-30T00:50:01.992Z,5.80
2019-03-30T00:50:40.052Z,5.80
2019-03-30T00:51:18.263Z,5.80
2019-03-30T00:51:56.571Z,5.80
2019-03-30T00:52:35.110Z,5.80
2019-03-30T00:53:13.371Z,5.80
2019-03-30T00:53:51.523Z,5.80
2019-03-30T00:54:29.769Z,5.80
2019-03-30T00:55:08.068Z,5.80
2019-03-30T00:55:46.556Z,5.80
2019-03-30T00:56:24.757Z,5.70
2019-03-30T00:57:03.279Z,5.70
2019-03-30T00:57:41.265Z,5.70
2019-03-30T00:58:19.649Z,5.80
2019-03-30T00:58:57.754Z,5.70
2019-03-30T00:59:35.746Z,5.70
2019-03-30T01:00:14.304Z,5.70
2019-03-30T01:00:52.500Z,5.70
2019-03-30T01:01:31.172Z,5.70
2019-03-30T01:02:09.548Z,5.70
2019-03-30T01:02:47.665Z,5.70
2019-03-30T01:03:26.244Z,5.70
2019-03-30T01:04:04.252Z,5.70
2019-03-30T01:04:42.944Z,5.70
2019-03-30T01:05:21.164Z,5.70
2019-03-30T01:05:59.716Z,5.70
2019-03-30T01:06:37.895Z,5.70
2019-03-30T01:07:16.354Z,5.70
2019-03-30T01:07:55.012Z,5.70
2019-03-30T01:08:33.120Z,5.70
2019-03-30T01:09:11.914Z,5.70
2019-03-30T01:09:49.928Z,5.70
2019-03-30T01:10:28.544Z,5.60
2019-03-30T01:11:06.756Z,5.60
2019-03-30T01:11:45.136Z,5.70
2019-03-30T01:12:23.426Z,5.70
2019-03-30T01:13:01.844Z,5.60
2019-03-30T01:13:40.140Z,5.60
2019-03-30T01:14:18.439Z,5.70
2019-03-30T01:14:56.715Z,5.60
2019-03-30T01:15:35.169Z,5.60
2019-03-30T01:16:13.688Z,5.60
2019-03-30T01:16:52.188Z,5.60
2019-03-30T01:17:30.424Z,5.60
2019-03-30T01:18:07.942Z,5.60
2019-03-30T01:18:46.112Z,5.60
2019-03-30T01:19:24.290Z,5.60
2019-03-30T01:20:03.795Z,5.60
2019-03-30T01:20:42.016Z,5.60
2019-03-30T01:21:20.514Z,5.60
2019-03-30T01:21:59.125Z,5.50
2019-03-30T01:22:37.389Z,5.50
2019-03-30T01:23:15.350Z,5.50
2019-03-30T01:23:53.878Z,5.50
2019-03-30T01:24:32.456Z,5.50
2019-03-30T01:25:11.322Z,5.60
2019-03-30T01:25:49.312Z,5.60
2019-03-30T01:26:27.816Z,5.60
2019-03-30T01:27:06.434Z,5.60
2019-03-30T01:27:44.008Z,5.60
2019-03-30T01:28:22.612Z,5.50
2019-03-30T01:29:00.518Z,5.50
2019-03-30T01:29:38.746Z,5.50
2019-03-30T01:30:23.424Z,5.50
2019-03-30T01:30:57.187Z,5.50
2019-03-30T01:31:35.372Z,5.60
2019-03-30T01:32:13.605Z,5.60
2019-03-30T01:32:52.218Z,5.60
2019-03-30T01:33:30.856Z,5.60
2019-03-30T01:34:09.157Z,5.50
2019-03-30T01:34:47.536Z,5.50
2019-03-30T01:35:26.009Z,5.50
2019-03-30T01:36:03.890Z,5.50
2019-03-30T01:36:43.455Z,5.60
2019-03-30T01:37:22.074Z,5.50
2019-03-30T01:37:59.962Z,5.50
2019-03-30T01:38:38.055Z,5.60
2019-03-30T01:39:16.133Z,5.60
2019-03-30T01:39:54.776Z,5.50
2019-03-30T01:40:33.004Z,5.50
2019-03-30T01:41:11.661Z,5.60
2019-03-30T01:41:49.720Z,5.50
2019-03-30T01:42:27.719Z,5.50
2019-03-30T01:43:06.232Z,5.50
2019-03-30T01:43:44.772Z,5.50
2019-03-30T01:44:22.969Z,5.50
2019-03-30T01:45:00.828Z,5.50
2019-03-30T01:45:38.956Z,5.50
2019-03-30T01:46:17.188Z,5.50
2019-03-30T01:46:55.623Z,5.50
2019-03-30T01:47:33.920Z,5.50
2019-03-30T01:48:12.450Z,5.50
2019-03-30T01:48:50.717Z,5.50
2019-03-30T01:49:28.864Z,5.50
2019-03-30T01:50:17.353Z,5.50
2019-03-30T01:50:48.510Z,5.50
2019-03-30T01:51:26.158Z,5.50
2019-03-30T01:52:04.458Z,5.50
2019-03-30T01:52:42.446Z,5.50
2019-03-30T01:53:20.534Z,5.50
2019-03-30T01:53:59.246Z,5.50
2019-03-30T01:54:37.456Z,5.50
2019-03-30T01:55:15.793Z,5.50
2019-03-30T01:55:54.549Z,5.50
2019-03-30T01:56:32.174Z,5.50
2019-03-30T01:57:10.740Z,5.50
2019-03-30T01:57:48.724Z,5.50
2019-03-30T01:58:27.271Z,5.50
2019-03-30T01:59:05.192Z,5.50
2019-03-30T01:59:43.216Z,5.50
2019-03-30T02:00:21.832Z,5.50
2019-03-30T02:00:59.615Z,5.50
2019-03-30T02:01:37.256Z,5.50
2019-03-30T02:02:15.598Z,5.50
2019-03-30T02:02:53.272Z,5.50
2019-03-30T02:03:31.558Z,5.50
2019-03-30T02:04:09.922Z,5.50
2019-03-30T02:04:47.936Z,5.50
2019-03-30T02:05:26.657Z,5.50
2019-03-30T02:06:05.317Z,5.50
2019-03-30T02:06:43.292Z,5.50
2019-03-30T02:07:21.624Z,5.50
2019-03-30T02:07:59.820Z,5.50
2019-03-30T02:08:38.267Z,5.50
2019-03-30T02:09:16.784Z,5.50
2019-03-30T02:09:54.954Z,5.50
2019-03-30T02:10:44.264Z,5.50
2019-03-30T02:11:22.920Z,5.50
2019-03-30T02:12:01.342Z,5.50
2019-03-30T02:12:39.440Z,5.50
2019-03-30T02:13:17.285Z,5.50
2019-03-30T02:13:55.511Z,5.50
2019-03-30T02:14:34.128Z,5.50
2019-03-30T02:15:12.196Z,5.50
2019-03-30T02:15:50.526Z,5.50
2019-03-30T02:16:28.097Z,5.50
2019-03-30T02:17:07.052Z,5.50
2019-03-30T02:17:45.476Z,5.50
2019-03-30T02:18:23.786Z,5.50
2019-03-30T02:19:01.838Z,5.50
2019-03-30T02:19:39.584Z,5.50
2019-03-30T02:20:30.906Z,5.50
2019-03-30T02:21:08.474Z,5.50
2019-03-30T02:21:46.049Z,5.50
2019-03-30T02:22:24.249Z,5.50
2019-03-30T02:23:02.776Z,5.50
2019-03-30T02:23:41.026Z,5.40
2019-03-30T02:24:19.589Z,5.50
2019-03-30T02:24:57.923Z,5.50
2019-03-30T02:25:37.895Z,5.50
2019-03-30T02:26:15.164Z,5.50
2019-03-30T02:26:53.482Z,5.50
2019-03-30T02:27:31.734Z,5.50
2019-03-30T02:28:10.636Z,5.50
2019-03-30T02:28:48.941Z,5.50
2019-03-30T02:29:27.184Z,5.50
2019-03-30T02:30:05.705Z,5.50
2019-03-30T02:30:44.065Z,5.50
2019-03-30T02:31:22.334Z,5.50
2019-03-30T02:32:00.871Z,5.50
2019-03-30T02:32:39.547Z,5.50
2019-03-30T02:33:17.869Z,5.50
2019-03-30T02:33:56.241Z,5.50
2019-03-30T02:34:34.639Z,5.50
2019-03-30T02:35:12.965Z,5.50
2019-03-30T02:35:50.954Z,5.50
2019-03-30T02:36:29.489Z,5.50
2019-03-30T02:37:08.037Z,5.50
2019-03-30T02:37:46.259Z,5.50
2019-03-30T02:38:24.557Z,5.50
2019-03-30T02:39:01.860Z,5.50
2019-03-30T02:39:40.158Z,5.50
2019-03-30T02:40:18.824Z,5.50
2019-03-30T02:40:57.327Z,5.50
2019-03-30T02:41:35.413Z,5.50
2019-03-30T02:42:13.649Z,5.50
2019-03-30T02:42:52.006Z,5.50
2019-03-30T02:43:30.263Z,5.50
2019-03-30T02:44:08.493Z,5.50
2019-03-30T02:44:47.035Z,5.50
2019-03-30T02:45:25.396Z,5.50
2019-03-30T02:46:03.801Z,5.50
2019-03-30T02:46:42.260Z,5.50
2019-03-30T02:47:20.919Z,5.50
2019-03-30T02:47:58.543Z,5.50
2019-03-30T02:48:36.616Z,5.50
2019-03-30T02:49:14.806Z,5.50
2019-03-30T02:49:52.869Z,5.50
2019-03-30T02:50:47.803Z,5.50
2019-03-30T02:51:11.115Z,5.50
2019-03-30T02:51:49.624Z,5.50
2019-03-30T02:52:27.868Z,5.50
2019-03-30T02:53:06.171Z,5.50
2019-03-30T02:53:44.409Z,5.50
2019-03-30T02:54:22.414Z,5.50
2019-03-30T02:55:00.727Z,5.50
2019-03-30T02:55:38.683Z,5.50
2019-03-30T02:56:16.990Z,5.50
2019-03-30T02:56:54.965Z,5.50
2019-03-30T02:57:33.278Z,5.50
2019-03-30T02:58:11.705Z,5.50
2019-03-30T02:58:50.325Z,5.50
2019-03-30T02:59:28.877Z,5.50
2019-03-30T03:00:10.783Z,5.50
2019-03-30T03:00:49.053Z,5.50
2019-03-30T03:01:27.670Z,5.50
2019-03-30T03:02:06.208Z,5.50
2019-03-30T03:02:44.254Z,5.50
2019-03-30T03:03:21.885Z,5.50
2019-03-30T03:03:59.923Z,5.50
2019-03-30T03:04:38.485Z,5.50
2019-03-30T03:05:17.253Z,5.50
2019-03-30T03:05:55.864Z,5.50
2019-03-30T03:06:34.177Z,5.50
2019-03-30T03:07:12.673Z,5.50
2019-03-30T03:07:50.765Z,5.50
2019-03-30T03:08:29.529Z,5.50
2019-03-30T03:09:09.444Z,5.50
2019-03-30T03:09:47.707Z,5.50
2019-03-30T03:10:26.035Z,5.50
2019-03-30T03:11:03.864Z,5.50
2019-03-30T03:11:42.265Z,5.50
2019-03-30T03:12:20.387Z,5.50
2019-03-30T03:12:58.284Z,5.50
2019-03-30T03:13:36.235Z,5.50
2019-03-30T03:14:14.123Z,5.50
2019-03-30T03:14:52.729Z,5.50
2019-03-30T03:15:30.718Z,5.50
2019-03-30T03:16:09.334Z,5.50
2019-03-30T03:16:47.315Z,5.50
2019-03-30T03:17:25.206Z,5.50
2019-03-30T03:18:03.510Z,5.50
2019-03-30T03:18:41.750Z,5.50
2019-03-30T03:19:19.789Z,5.50
2019-03-30T03:19:58.237Z,5.50
2019-03-30T03:20:36.632Z,5.50
2019-03-30T03:21:15.328Z,5.50
2019-03-30T03:21:53.625Z,5.50
2019-03-30T03:22:32.146Z,5.50
2019-03-30T03:23:10.190Z,5.50
2019-03-30T03:23:48.693Z,5.50
2019-03-30T03:24:27.000Z,5.50
2019-03-30T03:25:05.559Z,5.50
2019-03-30T03:25:44.282Z,5.50
2019-03-30T03:26:22.301Z,5.50
2019-03-30T03:27:00.428Z,5.50
2019-03-30T03:27:38.693Z,5.50
2019-03-30T03:28:16.982Z,5.40
2019-03-30T03:28:55.150Z,5.40
2019-03-30T03:29:32.945Z,5.40
2019-03-30T03:30:11.412Z,5.40
2019-03-30T03:30:50.126Z,5.40
2019-03-30T03:31:28.291Z,5.40
2019-03-30T03:32:06.898Z,5.40
2019-03-30T03:32:45.525Z,5.40
2019-03-30T03:33:24.162Z,5.40
2019-03-30T03:34:02.480Z,5.40
2019-03-30T03:34:41.114Z,5.40
2019-03-30T03:35:19.655Z,5.40
2019-03-30T03:35:57.995Z,5.30
2019-03-30T03:36:35.916Z,5.30
2019-03-30T03:37:14.123Z,5.30
2019-03-30T03:37:52.282Z,5.30
2019-03-30T03:38:30.580Z,5.30
2019-03-30T03:39:09.244Z,5.30
2019-03-30T03:39:47.214Z,5.30
2019-03-30T03:40:25.246Z,5.30
2019-03-30T03:41:03.989Z,5.30
2019-03-30T03:41:42.233Z,5.30
2019-03-30T03:42:20.891Z,5.30
2019-03-30T03:42:59.266Z,5.30
2019-03-30T03:43:37.719Z,5.30
2019-03-30T03:44:16.194Z,5.30
2019-03-30T03:44:54.574Z,5.30
2019-03-30T03:45:33.065Z,5.30
2019-03-30T03:46:11.352Z,5.30
2019-03-30T03:46:49.993Z,5.30
2019-03-30T03:47:28.321Z,5.30
2019-03-30T03:48:07.116Z,5.30
2019-03-30T03:48:44.775Z,5.30
2019-03-30T03:49:22.927Z,5.30
2019-03-30T03:50:01.393Z,5.30
2019-03-30T03:50:44.630Z,5.30
2019-03-30T03:51:26.097Z,5.30
2019-03-30T03:52:02.813Z,5.30
2019-03-30T03:52:42.050Z,5.30
2019-03-30T03:53:20.237Z,5.30
2019-03-30T03:53:58.465Z,5.30
2019-03-30T03:54:36.701Z,5.30
2019-03-30T03:55:15.250Z,5.30
2019-03-30T03:55:53.623Z,5.30
2019-03-30T03:56:34.092Z,5.30
2019-03-30T03:57:13.701Z,5.30
2019-03-30T03:57:52.284Z,5.30
2019-03-30T03:58:33.749Z,5.30
2019-03-30T03:59:13.136Z,5.20
2019-03-30T03:59:53.817Z,5.20
2019-03-30T04:00:33.635Z,5.20
2019-03-30T04:01:12.866Z,5.20
2019-03-30T04:01:53.733Z,5.20
2019-03-30T04:02:37.400Z,5.20
2019-03-30T04:03:19.349Z,5.20
2019-03-30T04:04:00.005Z,5.20
2019-03-30T04:04:41.202Z,5.20
2019-03-30T04:05:21.946Z,5.20
2019-03-30T04:06:02.023Z,5.20
2019-03-30T04:06:43.474Z,5.20
2019-03-30T04:07:24.202Z,5.20
2019-03-30T04:08:04.641Z,5.20
2019-03-30T04:08:46.070Z,5.20
2019-03-30T04:09:26.582Z,5.20
2019-03-30T04:10:06.645Z,5.20
2019-03-30T04:10:48.298Z,5.20
2019-03-30T04:11:27.117Z,5.20
2019-03-30T04:12:08.502Z,5.20
2019-03-30T04:12:50.030Z,5.20
2019-03-30T04:13:30.446Z,5.20
2019-03-30T04:14:12.406Z,5.20
2019-03-30T04:14:53.814Z,5.20
2019-03-30T04:15:32.108Z,5.20
2019-03-30T04:16:10.330Z,5.20
2019-03-30T04:16:49.060Z,5.20
2019-03-30T04:17:27.260Z,5.20
2019-03-30T04:18:05.782Z,5.20
2019-03-30T04:18:47.916Z,5.20
2019-03-30T04:19:23.310Z,5.10
2019-03-30T04:20:01.370Z,5.10
2019-03-30T04:20:39.261Z,5.10
2019-03-30T04:21:17.503Z,5.10
2019-03-30T04:21:55.818Z,5.10
2019-03-30T04:22:33.541Z,5.10
2019-03-30T04:23:10.883Z,5.10
2019-03-30T04:23:48.900Z,5.10
2019-03-30T04:24:27.142Z,5.10
2019-03-30T04:25:05.851Z,5.10
2019-03-30T04:25:44.440Z,5.10
2019-03-30T04:26:22.708Z,5.10
2019-03-30T04:27:00.808Z,5.10
2019-03-30T04:27:38.814Z,5.10
2019-03-30T04:28:16.886Z,5.10
2019-03-30T04:28:55.238Z,5.10
2019-03-30T04:29:33.615Z,5.10
2019-03-30T04:30:12.335Z,5.10
2019-03-30T04:30:50.344Z,5.10
2019-03-30T04:31:29.099Z,5.10
2019-03-30T04:32:07.802Z,5.10
2019-03-30T04:32:45.844Z,5.10
2019-03-30T04:33:24.110Z,5.10
2019-03-30T04:34:02.085Z,5.10
2019-03-30T04:34:40.187Z,5.10
2019-03-30T04:35:18.831Z,5.10
2019-03-30T04:35:57.067Z,5.10
2019-03-30T04:36:35.160Z,5.10
2019-03-30T04:37:13.771Z,5.10
2019-03-30T04:37:52.489Z,5.10
2019-03-30T04:38:30.475Z,5.10
2019-03-30T04:39:09.119Z,5.10
2019-03-30T04:39:47.382Z,5.10
2019-03-30T04:40:26.750Z,5.10
2019-03-30T04:41:04.829Z,5.10
2019-03-30T04:41:43.397Z,5.10
2019-03-30T04:42:21.971Z,5.10
2019-03-30T04:43:00.277Z,5.10
2019-03-30T04:43:38.323Z,5.10
2019-03-30T04:44:16.909Z,5.10
2019-03-30T04:44:55.540Z,5.10
2019-03-30T04:45:33.801Z,5.10
2019-03-30T04:46:12.452Z,5.10
2019-03-30T04:46:51.126Z,5.10
2019-03-30T04:47:29.360Z,5.10
2019-03-30T04:48:08.030Z,5.10
2019-03-30T04:48:46.541Z,5.10
2019-03-30T04:49:24.859Z,5.10
2019-03-30T04:50:02.806Z,5.10
2019-03-30T04:50:41.342Z,5.10
2019-03-30T04:51:19.571Z,5.10
2019-03-30T04:51:58.323Z,5.10
2019-03-30T04:52:36.718Z,5.10
2019-03-30T04:53:15.260Z,5.10
2019-03-30T04:53:53.316Z,5.10
2019-03-30T04:54:31.935Z,5.10
2019-03-30T04:55:09.937Z,5.10
2019-03-30T04:55:48.511Z,5.10
2019-03-30T04:56:27.057Z,5.10
2019-03-30T04:57:04.995Z,5.10
2019-03-30T04:57:43.294Z,5.10
2019-03-30T04:58:21.509Z,5.20
2019-03-30T04:58:59.172Z,5.20
2019-03-30T04:59:36.766Z,5.20
2019-03-30T05:00:16.408Z,5.20
2019-03-30T05:00:54.948Z,5.20
2019-03-30T05:01:33.322Z,5.20
2019-03-30T05:02:11.603Z,5.20
2019-03-30T05:02:49.823Z,5.20
2019-03-30T05:03:27.790Z,5.20
2019-03-30T05:04:05.770Z,5.20
2019-03-30T05:04:43.769Z,5.20
2019-03-30T05:05:21.641Z,5.30
2019-03-30T05:06:00.275Z,5.30
2019-03-30T05:06:37.951Z,5.30
2019-03-30T05:07:16.463Z,5.30
2019-03-30T05:07:54.530Z,5.30
2019-03-30T05:08:32.555Z,5.30
2019-03-30T05:09:10.766Z,5.30
2019-03-30T05:09:49.259Z,5.30
2019-03-30T05:10:27.569Z,5.30
2019-03-30T05:11:06.171Z,5.30
2019-03-30T05:11:44.430Z,5.30
2019-03-30T05:12:22.067Z,5.40
2019-03-30T05:13:00.422Z,5.40
2019-03-30T05:13:38.490Z,5.40
2019-03-30T05:14:16.485Z,5.40
2019-03-30T05:14:54.505Z,5.40
2019-03-30T05:15:54.479Z,5.40
2019-03-30T05:16:44.096Z,5.40
2019-03-30T05:17:55.989Z,5.50
2019-03-30T05:18:37.369Z,5.50
2019-03-30T05:19:15.997Z,5.50
2019-03-30T05:19:54.398Z,5.50
2019-03-30T05:20:32.843Z,5.50
2019-03-30T05:21:11.423Z,5.50
2019-03-30T05:21:50.159Z,5.50
2019-03-30T05:22:28.692Z,5.50
2019-03-30T05:23:07.191Z,5.50
2019-03-30T05:23:45.226Z,5.60
2019-03-30T05:24:23.213Z,5.60
2019-03-30T05:25:01.316Z,5.60
2019-03-30T05:25:39.497Z,5.60
2019-03-30T05:26:17.943Z,5.60
2019-03-30T05:26:56.180Z,5.60
2019-03-30T05:27:34.736Z,5.60
2019-03-30T05:28:13.333Z,5.70
2019-03-30T05:28:51.556Z,5.70
2019-03-30T05:29:29.834Z,5.70
2019-03-30T05:30:08.243Z,5.70
2019-03-30T05:30:45.917Z,5.70
2019-03-30T05:31:24.284Z,5.70
2019-03-30T05:32:02.616Z,5.70
2019-03-30T05:32:41.739Z,5.80
2019-03-30T05:33:20.235Z,5.80
2019-03-30T05:33:58.551Z,5.80
2019-03-30T05:34:36.079Z,5.80
2019-03-30T05:35:14.339Z,5.90
2019-03-30T05:35:52.675Z,5.90
2019-03-30T05:36:30.935Z,5.90
2019-03-30T05:37:09.200Z,5.90
2019-03-30T05:37:47.769Z,5.90
2019-03-30T05:38:25.352Z,6.00
2019-03-30T05:39:05.082Z,6.00
2019-03-30T05:39:43.560Z,6.00
2019-03-30T05:40:21.524Z,6.10
2019-03-30T05:41:00.022Z,6.10
2019-03-30T05:41:38.592Z,6.10
2019-03-30T05:42:16.852Z,6.20
2019-03-30T05:42:55.660Z,6.20
2019-03-30T05:43:33.840Z,6.20
2019-03-30T05:44:12.028Z,6.30
2019-03-30T05:44:50.555Z,6.30
2019-03-30T05:45:28.586Z,6.40
2019-03-30T05:46:07.303Z,6.40
2019-03-30T05:46:45.596Z,6.40
2019-03-30T05:47:23.871Z,6.40
2019-03-30T05:48:02.273Z,6.40
2019-03-30T05:48:40.289Z,6.50
2019-03-30T05:49:18.904Z,6.50
2019-03-30T05:49:57.124Z,6.50
2019-03-30T05:50:35.507Z,6.50
2019-03-30T05:51:13.852Z,6.60
2019-03-30T05:51:52.175Z,6.60
2019-03-30T05:52:30.780Z,6.60
2019-03-30T05:53:09.031Z,6.60
2019-03-30T05:53:47.280Z,6.60
2019-03-30T05:54:25.613Z,6.60
2019-03-30T05:55:04.279Z,6.70
2019-03-30T05:55:42.586Z,6.70
2019-03-30T05:56:21.189Z,6.70
2019-03-30T05:56:58.895Z,6.70
2019-03-30T05:57:37.444Z,6.70
2019-03-30T05:58:16.177Z,6.80
2019-03-30T05:58:55.193Z,6.80
2019-03-30T05:59:33.511Z,6.80
2019-03-30T06:00:14.115Z,6.80
2019-03-30T06:00:52.608Z,6.80
2019-03-30T06:01:31.076Z,6.90
2019-03-30T06:02:09.443Z,6.90
2019-03-30T06:02:47.760Z,6.90
2019-03-30T06:03:26.301Z,6.90
2019-03-30T06:04:04.242Z,6.90
2019-03-30T06:04:42.268Z,6.90
2019-03-30T06:05:20.631Z,6.90
2019-03-30T06:05:58.934Z,6.90
2019-03-30T06:06:37.325Z,7.00
2019-03-30T06:07:15.904Z,7.00
2019-03-30T06:07:54.235Z,7.00
2019-03-30T06:08:32.337Z,7.00
2019-03-30T06:09:29.270Z,7.00
2019-03-30T06:10:07.457Z,7.00
2019-03-30T06:10:46.042Z,7.10
2019-03-30T06:11:24.057Z,7.10
2019-03-30T06:12:02.096Z,7.10
2019-03-30T06:12:40.702Z,7.20
2019-03-30T06:13:19.044Z,7.20
2019-03-30T06:13:57.502Z,7.20
2019-03-30T06:14:35.783Z,7.20
2019-03-30T06:15:14.480Z,7.20
2019-03-30T06:15:53.078Z,7.30
2019-03-30T06:16:31.451Z,7.30
2019-03-30T06:17:09.580Z,7.30
2019-03-30T06:17:48.296Z,7.30
2019-03-30T06:18:26.356Z,7.30
2019-03-30T06:19:04.759Z,7.40
2019-03-30T06:19:43.254Z,7.40
2019-03-30T06:20:21.752Z,7.40
2019-03-30T06:21:00.156Z,7.40
2019-03-30T06:21:38.123Z,7.50
2019-03-30T06:22:16.176Z,7.50
2019-03-30T06:22:54.312Z,7.50
2019-03-30T06:23:32.453Z,7.50
2019-03-30T06:24:11.026Z,7.50
2019-03-30T06:24:49.187Z,7.60
2019-03-30T06:25:26.771Z,7.60
2019-03-30T06:26:04.367Z,7.60
2019-03-30T06:26:42.542Z,7.70
2019-03-30T06:27:20.805Z,7.70
2019-03-30T06:27:59.354Z,7.70
2019-03-30T06:28:37.576Z,7.70
2019-03-30T06:29:16.038Z,7.70
2019-03-30T06:30:18.821Z,7.70
2019-03-30T06:30:56.855Z,7.80
2019-03-30T06:31:34.827Z,7.80
2019-03-30T06:32:13.079Z,7.80
2019-03-30T06:32:51.886Z,7.80
2019-03-30T06:33:29.844Z,7.90
2019-03-30T06:34:07.832Z,7.90
2019-03-30T06:34:46.523Z,7.90
2019-03-30T06:35:24.625Z,8.00
2019-03-30T06:36:03.084Z,8.00
2019-03-30T06:36:41.260Z,8.00
2019-03-30T06:37:19.796Z,8.00
2019-03-30T06:37:58.097Z,8.10
2019-03-30T06:38:36.758Z,8.10
2019-03-30T06:39:15.460Z,8.10
2019-03-30T06:39:53.860Z,8.10
2019-03-30T06:40:32.132Z,8.10
2019-03-30T06:41:10.471Z,8.10
2019-03-30T06:41:48.188Z,8.20
2019-03-30T06:42:26.103Z,8.20
2019-03-30T06:43:07.581Z,8.20
2019-03-30T06:43:44.748Z,8.30
2019-03-30T06:44:23.156Z,8.30
2019-03-30T06:45:01.440Z,8.30
2019-03-30T06:45:40.027Z,8.30
2019-03-30T06:46:18.387Z,8.30
2019-03-30T06:46:56.711Z,8.30
2019-03-30T06:47:34.743Z,8.40
2019-03-30T06:48:12.772Z,8.40
2019-03-30T06:48:50.721Z,8.40
2019-03-30T06:49:28.720Z,8.40
2019-03-30T06:50:19.072Z,8.50
2019-03-30T06:50:56.930Z,8.50
2019-03-30T06:51:35.432Z,8.50
2019-03-30T06:52:14.086Z,8.50
2019-03-30T06:52:57.907Z,8.50
2019-03-30T06:53:32.638Z,8.50
2019-03-30T06:54:10.886Z,8.60
2019-03-30T06:54:49.380Z,8.60
2019-03-30T06:55:27.875Z,8.60
2019-03-30T06:56:06.224Z,8.60
2019-03-30T06:56:44.429Z,8.60
2019-03-30T06:57:22.979Z,8.70
2019-03-30T06:58:01.577Z,8.70
2019-03-30T06:58:40.191Z,8.70
2019-03-30T06:59:18.880Z,8.70
2019-03-30T06:59:56.837Z,8.70
2019-03-30T07:00:35.906Z,8.80
2019-03-30T07:01:14.676Z,8.80
2019-03-30T07:01:53.202Z,8.80
2019-03-30T07:02:31.540Z,8.80
2019-03-30T07:03:10.581Z,8.80
2019-03-30T07:04:11.384Z,8.80
2019-03-30T07:04:50.348Z,8.80
2019-03-30T07:05:28.936Z,8.90
2019-03-30T07:06:07.864Z,8.90
2019-03-30T07:06:47.308Z,8.90
2019-03-30T07:07:27.500Z,9.00
2019-03-30T07:08:05.755Z,9.00
2019-03-30T07:08:45.532Z,9.00
2019-03-30T07:09:25.975Z,9.00
2019-03-30T07:10:05.275Z,9.00
2019-03-30T07:10:45.337Z,9.10
2019-03-30T07:11:26.273Z,9.10
2019-03-30T07:12:05.448Z,9.10
2019-03-30T07:12:43.629Z,9.10
2019-03-30T07:13:21.786Z,9.20
2019-03-30T07:14:03.401Z,9.20
2019-03-30T07:14:43.872Z,9.20
2019-03-30T07:15:23.696Z,9.20
2019-03-30T07:16:04.541Z,9.20
2019-03-30T07:16:43.518Z,9.30
2019-03-30T07:17:21.998Z,9.30
2019-03-30T07:18:03.390Z,9.30
2019-03-30T07:18:46.108Z,9.30
2019-03-30T07:19:27.501Z,9.40
2019-03-30T07:20:08.066Z,9.40
2019-03-30T07:20:45.610Z,9.40
2019-03-30T07:21:24.579Z,9.40
2019-03-30T07:22:02.478Z,9.50
2019-03-30T07:22:40.192Z,9.50
2019-03-30T07:23:17.862Z,9.50
2019-03-30T07:23:55.867Z,9.60
2019-03-30T07:24:33.755Z,9.60
2019-03-30T07:25:13.922Z,9.60
2019-03-30T07:25:52.016Z,9.60
2019-03-30T07:26:30.392Z,9.70
2019-03-30T07:27:08.457Z,9.70
2019-03-30T07:27:47.051Z,9.70
2019-03-30T07:28:25.889Z,9.80
2019-03-30T07:29:04.706Z,9.80
2019-03-30T07:29:43.101Z,9.80
2019-03-30T07:30:20.892Z,9.90
2019-03-30T07:30:59.472Z,9.90
2019-03-30T07:31:37.384Z,9.90
2019-03-30T07:32:15.177Z,10.00
2019-03-30T07:32:53.291Z,10.00
2019-03-30T07:33:31.602Z,10.00
2019-03-30T07:34:10.108Z,10.10
2019-03-30T07:34:48.626Z,10.10
2019-03-30T07:35:26.400Z,10.10
2019-03-30T07:36:04.680Z,10.10
2019-03-30T07:36:43.015Z,10.20
2019-03-30T07:37:21.261Z,10.20
2019-03-30T07:37:59.552Z,10.20
2019-03-30T07:38:37.646Z,10.20
2019-03-30T07:39:15.320Z,10.20
2019-03-30T07:39:53.624Z,10.30
2019-03-30T07:40:33.931Z,10.30
2019-03-30T07:41:11.043Z,10.30
2019-03-30T07:41:49.345Z,10.30
2019-03-30T07:42:27.584Z,10.40
2019-03-30T07:43:13.425Z,10.40
2019-03-30T07:43:51.417Z,10.50
2019-03-30T07:44:29.142Z,10.50
2019-03-30T07:45:07.435Z,10.60
2019-03-30T07:45:45.585Z,10.60
2019-03-30T07:46:23.728Z,10.60
2019-03-30T07:47:02.079Z,10.70
2019-03-30T07:47:40.379Z,10.70
2019-03-30T07:48:18.490Z,10.70
2019-03-30T07:48:56.473Z,10.70
2019-03-30T07:49:34.477Z,10.80
2019-03-30T07:50:12.633Z,10.80
2019-03-30T07:50:51.292Z,10.90
2019-03-30T07:51:33.169Z,10.90
2019-03-30T07:52:09.934Z,10.90
2019-03-30T07:52:47.782Z,10.90
2019-03-30T07:53:27.056Z,10.90
2019-03-30T07:54:05.127Z,11.00
2019-03-30T07:54:42.532Z,11.00
2019-03-30T07:55:20.298Z,11.00
2019-03-30T07:56:08.402Z,11.10
2019-03-30T07:56:38.556Z,11.20
2019-03-30T07:57:17.540Z,11.20
2019-03-30T07:57:55.339Z,11.20
2019-03-30T07:58:33.652Z,11.20
2019-03-30T07:59:11.989Z,11.20
2019-03-30T07:59:49.792Z,11.20
2019-03-30T08:00:30.737Z,11.30
2019-03-30T08:01:07.057Z,11.30
2019-03-30T08:01:45.049Z,11.30
2019-03-30T08:02:23.077Z,11.40
2019-03-30T08:03:00.860Z,11.40
2019-03-30T08:03:38.859Z,11.40
2019-03-30T08:04:16.852Z,11.50
2019-03-30T08:04:54.551Z,11.50
2019-03-30T08:05:32.841Z,11.50
2019-03-30T08:06:11.006Z,11.50
2019-03-30T08:06:49.015Z,11.50
2019-03-30T08:07:27.426Z,11.60
2019-03-30T08:08:05.400Z,11.60
2019-03-30T08:08:46.076Z,11.60
2019-03-30T08:09:23.772Z,11.70
2019-03-30T08:10:01.834Z,11.70
2019-03-30T08:10:40.146Z,11.70
2019-03-30T08:11:18.305Z,11.70
2019-03-30T08:11:56.009Z,11.80
2019-03-30T08:12:33.785Z,11.80
2019-03-30T08:13:23.353Z,11.80
2019-03-30T08:14:01.717Z,11.80
2019-03-30T08:14:58.520Z,11.90
2019-03-30T08:15:36.613Z,11.90
2019-03-30T08:16:15.320Z,11.90
2019-03-30T08:16:53.721Z,12.00
2019-03-30T08:17:49.960Z,12.00
2019-03-30T08:18:28.112Z,12.00
2019-03-30T08:19:05.845Z,12.10
2019-03-30T08:19:43.599Z,12.10
2019-03-30T08:20:21.669Z,12.10
2019-03-30T08:20:59.632Z,12.10
2019-03-30T08:21:37.473Z,12.20
2019-03-30T08:22:15.207Z,12.20
2019-03-30T08:22:53.473Z,12.20
2019-03-30T08:23:40.130Z,12.30
2019-03-30T08:24:11.621Z,12.30
2019-03-30T08:24:49.738Z,12.30
2019-03-30T08:25:27.647Z,12.30
2019-03-30T08:26:05.590Z,12.30
2019-03-30T08:26:43.935Z,12.30
2019-03-30T08:27:21.925Z,12.40
2019-03-30T08:27:59.623Z,12.40
2019-03-30T08:28:36.934Z,12.40
2019-03-30T08:29:15.136Z,12.40
2019-03-30T08:29:52.943Z,12.40
2019-03-30T08:30:31.046Z,12.40
2019-03-30T08:31:09.247Z,12.50
2019-03-30T08:31:49.880Z,12.50
2019-03-30T08:32:27.106Z,12.50
2019-03-30T08:33:05.461Z,12.50
2019-03-30T08:33:43.398Z,12.60
2019-03-30T08:34:21.389Z,12.60